sensor_id;sensor_type;location;lat;lon;timestamp;P1;durP1;ratioP1;P2;durP2;ratioP2
26718;SDS011;14326;50.794;6.060;2022-08-06T00:01:01;9.30;;;2.00;;
26718;SDS011;14326;50.794;6.060;2022-08-06T00:03:28;6.13;;;2.10;;
26718;SDS011;14326;50.794;6.060;2022-08-06T00:05:55;8.57;;;1.80;;
26718;SDS011;14326;50.794;6.060;2022-08-06T00:08:23;7.88;;;1.80;;
26718;SDS011;14326;50.794;6.060;2022-08-06T00:10:49;8.02;;;2.08;;
26718;SDS011;14326;50.794;6.060;2022-08-06T00:13:16;5.47;;;2.00;;
26718;SDS011;14326;50.794;6.060;2022-08-06T00:15:43;9.63;;;2.13;;
26718;SDS011;14326;50.794;6.060;2022-08-06T00:18:10;8.43;;;2.20;;
26718;SDS011;14326;50.794;6.060;2022-08-06T00:20:37;7.13;;;2.05;;
26718;SDS011;14326;50.794;6.060;2022-08-06T00:23:03;6.93;;;2.05;;
26718;SDS011;14326;50.794;6.060;2022-08-06T00:25:31;7.97;;;2.63;;
26718;SDS011;14326;50.794;6.060;2022-08-06T00:27:58;10.63;;;2.35;;
26718;SDS011;14326;50.794;6.060;2022-08-06T00:30:25;14.73;;;2.53;;
26718;SDS011;14326;50.794;6.060;2022-08-06T00:32:51;7.32;;;1.75;;
26718;SDS011;14326;50.794;6.060;2022-08-06T00:35:20;8.48;;;2.22;;
26718;SDS011;14326;50.794;6.060;2022-08-06T00:37:46;8.02;;;2.40;;
26718;SDS011;14326;50.794;6.060;2022-08-06T00:40:14;7.40;;;2.17;;
26718;SDS011;14326;50.794;6.060;2022-08-06T00:42:43;10.23;;;2.22;;
26718;SDS011;14326;50.794;6.060;2022-08-06T00:45:10;6.90;;;2.05;;
26718;SDS011;14326;50.794;6.060;2022-08-06T00:47:37;6.97;;;2.00;;
26718;SDS011;14326;50.794;6.060;2022-08-06T00:50:04;5.32;;;1.55;;
26718;SDS011;14326;50.794;6.060;2022-08-06T00:52:31;7.95;;;2.00;;
26718;SDS011;14326;50.794;6.060;2022-08-06T00:54:58;5.45;;;1.90;;
26718;SDS011;14326;50.794;6.060;2022-08-06T00:57:24;6.47;;;1.98;;
26718;SDS011;14326;50.794;6.060;2022-08-06T00:59:52;8.00;;;2.03;;
26718;SDS011;14326;50.794;6.060;2022-08-06T01:02:19;10.60;;;2.10;;
26718;SDS011;14326;50.794;6.060;2022-08-06T01:04:46;12.15;;;2.22;;
26718;SDS011;14326;50.794;6.060;2022-08-06T01:07:12;4.50;;;1.55;;
26718;SDS011;14326;50.794;6.060;2022-08-06T01:09:39;6.70;;;2.55;;
26718;SDS011;14326;50.794;6.060;2022-08-06T01:12:06;12.95;;;2.10;;
26718;SDS011;14326;50.794;6.060;2022-08-06T01:14:33;7.25;;;2.00;;
26718;SDS011;14326;50.794;6.060;2022-08-06T01:17:01;6.85;;;2.13;;
26718;SDS011;14326;50.794;6.060;2022-08-06T01:19:40;5.53;;;1.90;;
26718;SDS011;14326;50.794;6.060;2022-08-06T01:22:17;9.15;;;2.05;;
26718;SDS011;14326;50.794;6.060;2022-08-06T01:25:02;13.05;;;2.20;;
26718;SDS011;14326;50.794;6.060;2022-08-06T01:27:42;11.98;;;2.30;;
26718;SDS011;14326;50.794;6.060;2022-08-06T01:30:13;6.88;;;2.22;;
26718;SDS011;14326;50.794;6.060;2022-08-06T01:32:45;8.32;;;1.90;;
26718;SDS011;14326;50.794;6.060;2022-08-06T01:35:16;7.93;;;2.30;;
26718;SDS011;14326;50.794;6.060;2022-08-06T01:37:48;5.65;;;1.90;;
26718;SDS011;14326;50.794;6.060;2022-08-06T01:40:19;9.98;;;2.08;;
26718;SDS011;14326;50.794;6.060;2022-08-06T01:45:17;6.65;;;2.17;;
26718;SDS011;14326;50.794;6.060;2022-08-06T01:47:47;3.42;;;1.60;;
26718;SDS011;14326;50.794;6.060;2022-08-06T01:50:20;6.80;;;2.13;;
26718;SDS011;14326;50.794;6.060;2022-08-06T01:52:49;7.53;;;1.92;;
26718;SDS011;14326;50.794;6.060;2022-08-06T01:55:18;5.53;;;2.00;;
26718;SDS011;14326;50.794;6.060;2022-08-06T01:57:47;5.82;;;1.98;;
26718;SDS011;14326;50.794;6.060;2022-08-06T02:00:17;5.95;;;2.30;;
26718;SDS011;14326;50.794;6.060;2022-08-06T02:02:46;7.50;;;2.30;;
26718;SDS011;14326;50.794;6.060;2022-08-06T02:05:15;7.82;;;1.98;;
26718;SDS011;14326;50.794;6.060;2022-08-06T02:10:13;6.97;;;1.95;;
26718;SDS011;14326;50.794;6.060;2022-08-06T02:12:43;6.32;;;1.80;;
26718;SDS011;14326;50.794;6.060;2022-08-06T02:15:12;11.05;;;2.40;;
26718;SDS011;14326;50.794;6.060;2022-08-06T02:17:44;9.52;;;2.63;;
26718;SDS011;14326;50.794;6.060;2022-08-06T02:20:16;8.80;;;1.85;;
26718;SDS011;14326;50.794;6.060;2022-08-06T02:22:47;10.88;;;2.28;;
26718;SDS011;14326;50.794;6.060;2022-08-06T02:25:15;7.05;;;2.28;;
26718;SDS011;14326;50.794;6.060;2022-08-06T02:27:44;9.55;;;2.47;;
26718;SDS011;14326;50.794;6.060;2022-08-06T02:30:13;9.13;;;1.83;;
26718;SDS011;14326;50.794;6.060;2022-08-06T02:32:40;12.48;;;2.58;;
26718;SDS011;14326;50.794;6.060;2022-08-06T02:35:08;8.90;;;2.10;;
26718;SDS011;14326;50.794;6.060;2022-08-06T02:37:38;9.68;;;2.60;;
26718;SDS011;14326;50.794;6.060;2022-08-06T02:40:11;6.15;;;1.88;;
26718;SDS011;14326;50.794;6.060;2022-08-06T02:42:43;6.68;;;1.88;;
26718;SDS011;14326;50.794;6.060;2022-08-06T02:45:15;13.20;;;2.10;;
26718;SDS011;14326;50.794;6.060;2022-08-06T02:47:48;14.60;;;2.10;;
26718;SDS011;14326;50.794;6.060;2022-08-06T02:50:22;7.53;;;2.08;;
26718;SDS011;14326;50.794;6.060;2022-08-06T02:52:54;10.43;;;2.50;;
26718;SDS011;14326;50.794;6.060;2022-08-06T02:57:52;6.22;;;2.00;;
26718;SDS011;14326;50.794;6.060;2022-08-06T03:00:22;7.25;;;2.13;;
26718;SDS011;14326;50.794;6.060;2022-08-06T03:02:51;8.38;;;2.20;;
26718;SDS011;14326;50.794;6.060;2022-08-06T03:05:23;6.82;;;1.88;;
26718;SDS011;14326;50.794;6.060;2022-08-06T03:07:51;7.53;;;2.58;;
26718;SDS011;14326;50.794;6.060;2022-08-06T03:10:21;6.18;;;1.75;;
26718;SDS011;14326;50.794;6.060;2022-08-06T03:12:50;5.25;;;1.77;;
26718;SDS011;14326;50.794;6.060;2022-08-06T03:15:18;8.32;;;1.90;;
26718;SDS011;14326;50.794;6.060;2022-08-06T03:17:47;8.18;;;2.22;;
26718;SDS011;14326;50.794;6.060;2022-08-06T03:20:19;11.25;;;2.40;;
26718;SDS011;14326;50.794;6.060;2022-08-06T03:22:48;5.85;;;2.00;;
26718;SDS011;14326;50.794;6.060;2022-08-06T03:25:17;9.07;;;2.25;;
26718;SDS011;14326;50.794;6.060;2022-08-06T03:27:45;11.00;;;2.20;;
26718;SDS011;14326;50.794;6.060;2022-08-06T03:30:14;8.50;;;2.50;;
26718;SDS011;14326;50.794;6.060;2022-08-06T03:32:41;8.15;;;2.40;;
26718;SDS011;14326;50.794;6.060;2022-08-06T03:35:09;5.32;;;2.13;;
26718;SDS011;14326;50.794;6.060;2022-08-06T03:37:37;8.40;;;2.30;;
26718;SDS011;14326;50.794;6.060;2022-08-06T03:40:07;6.43;;;2.30;;
26718;SDS011;14326;50.794;6.060;2022-08-06T03:42:36;7.50;;;2.15;;
26718;SDS011;14326;50.794;6.060;2022-08-06T03:45:03;7.38;;;2.30;;
26718;SDS011;14326;50.794;6.060;2022-08-06T03:47:31;7.53;;;2.20;;
26718;SDS011;14326;50.794;6.060;2022-08-06T03:50:06;4.75;;;1.88;;
26718;SDS011;14326;50.794;6.060;2022-08-06T03:52:36;9.27;;;2.38;;
26718;SDS011;14326;50.794;6.060;2022-08-06T03:55:08;6.50;;;2.60;;
26718;SDS011;14326;50.794;6.060;2022-08-06T03:57:39;6.88;;;2.22;;
26718;SDS011;14326;50.794;6.060;2022-08-06T04:00:07;9.40;;;3.42;;
26718;SDS011;14326;50.794;6.060;2022-08-06T04:02:37;11.80;;;2.88;;
26718;SDS011;14326;50.794;6.060;2022-08-06T04:05:06;5.05;;;1.98;;
26718;SDS011;14326;50.794;6.060;2022-08-06T04:07:36;8.13;;;3.00;;
26718;SDS011;14326;50.794;6.060;2022-08-06T04:10:05;6.55;;;2.17;;
26718;SDS011;14326;50.794;6.060;2022-08-06T04:12:35;8.75;;;2.60;;
26718;SDS011;14326;50.794;6.060;2022-08-06T04:15:03;7.88;;;2.30;;
26718;SDS011;14326;50.794;6.060;2022-08-06T04:17:31;8.27;;;2.50;;
26718;SDS011;14326;50.794;6.060;2022-08-06T04:19:59;9.80;;;2.42;;
26718;SDS011;14326;50.794;6.060;2022-08-06T04:22:27;7.57;;;2.30;;
26718;SDS011;14326;50.794;6.060;2022-08-06T04:24:55;7.00;;;2.13;;
26718;SDS011;14326;50.794;6.060;2022-08-06T04:27:22;9.98;;;2.45;;
26718;SDS011;14326;50.794;6.060;2022-08-06T04:32:19;6.60;;;2.20;;
26718;SDS011;14326;50.794;6.060;2022-08-06T04:34:48;8.77;;;2.42;;
26718;SDS011;14326;50.794;6.060;2022-08-06T04:37:17;10.65;;;2.35;;
26718;SDS011;14326;50.794;6.060;2022-08-06T04:39:44;6.43;;;2.38;;
26718;SDS011;14326;50.794;6.060;2022-08-06T04:42:11;10.60;;;2.72;;
26718;SDS011;14326;50.794;6.060;2022-08-06T04:44:40;7.60;;;2.50;;
26718;SDS011;14326;50.794;6.060;2022-08-06T04:47:07;8.27;;;2.50;;
26718;SDS011;14326;50.794;6.060;2022-08-06T04:49:33;8.45;;;2.60;;
26718;SDS011;14326;50.794;6.060;2022-08-06T04:52:00;11.55;;;2.58;;
26718;SDS011;14326;50.794;6.060;2022-08-06T04:54:27;9.75;;;2.50;;
26718;SDS011;14326;50.794;6.060;2022-08-06T04:56:53;8.73;;;2.40;;
26718;SDS011;14326;50.794;6.060;2022-08-06T04:59:20;8.10;;;2.70;;
26718;SDS011;14326;50.794;6.060;2022-08-06T05:01:48;10.35;;;4.35;;
26718;SDS011;14326;50.794;6.060;2022-08-06T05:04:14;6.70;;;2.55;;
26718;SDS011;14326;50.794;6.060;2022-08-06T05:06:43;6.82;;;2.95;;
26718;SDS011;14326;50.794;6.060;2022-08-06T05:09:15;13.27;;;3.08;;
26718;SDS011;14326;50.794;6.060;2022-08-06T05:11:45;9.27;;;2.85;;
26718;SDS011;14326;50.794;6.060;2022-08-06T05:14:19;12.07;;;3.03;;
26718;SDS011;14326;50.794;6.060;2022-08-06T05:16:50;10.50;;;3.00;;
26718;SDS011;14326;50.794;6.060;2022-08-06T05:19:21;8.55;;;2.50;;
26718;SDS011;14326;50.794;6.060;2022-08-06T05:21:52;13.00;;;3.17;;
26718;SDS011;14326;50.794;6.060;2022-08-06T05:24:21;9.75;;;2.72;;
26718;SDS011;14326;50.794;6.060;2022-08-06T05:26:48;16.27;;;3.10;;
26718;SDS011;14326;50.794;6.060;2022-08-06T05:29:17;12.02;;;4.13;;
26718;SDS011;14326;50.794;6.060;2022-08-06T05:31:44;9.25;;;3.45;;
26718;SDS011;14326;50.794;6.060;2022-08-06T05:34:13;12.98;;;3.20;;
26718;SDS011;14326;50.794;6.060;2022-08-06T05:36:40;11.60;;;3.17;;
26718;SDS011;14326;50.794;6.060;2022-08-06T05:39:07;9.85;;;2.83;;
26718;SDS011;14326;50.794;6.060;2022-08-06T05:41:34;12.73;;;2.80;;
26718;SDS011;14326;50.794;6.060;2022-08-06T05:44:00;8.85;;;3.05;;
26718;SDS011;14326;50.794;6.060;2022-08-06T05:46:29;9.02;;;2.95;;
26718;SDS011;14326;50.794;6.060;2022-08-06T05:49:00;10.20;;;2.90;;
26718;SDS011;14326;50.794;6.060;2022-08-06T05:51:35;18.65;;;3.80;;
26718;SDS011;14326;50.794;6.060;2022-08-06T05:54:09;12.10;;;3.60;;
26718;SDS011;14326;50.794;6.060;2022-08-06T05:56:40;10.30;;;3.00;;
26718;SDS011;14326;50.794;6.060;2022-08-06T05:59:10;13.02;;;3.85;;
26718;SDS011;14326;50.794;6.060;2022-08-06T06:01:42;11.05;;;3.05;;
26718;SDS011;14326;50.794;6.060;2022-08-06T06:04:09;12.48;;;3.10;;
26718;SDS011;14326;50.794;6.060;2022-08-06T06:06:39;9.70;;;2.80;;
26718;SDS011;14326;50.794;6.060;2022-08-06T06:09:06;12.25;;;3.05;;
26718;SDS011;14326;50.794;6.060;2022-08-06T06:11:33;11.45;;;2.80;;
26718;SDS011;14326;50.794;6.060;2022-08-06T06:14:00;14.63;;;3.58;;
26718;SDS011;14326;50.794;6.060;2022-08-06T06:16:29;15.63;;;2.90;;
26718;SDS011;14326;50.794;6.060;2022-08-06T06:19:03;13.75;;;3.10;;
26718;SDS011;14326;50.794;6.060;2022-08-06T06:21:47;12.43;;;3.25;;
26718;SDS011;14326;50.794;6.060;2022-08-06T06:24:26;13.68;;;2.70;;
26718;SDS011;14326;50.794;6.060;2022-08-06T06:26:59;15.77;;;3.03;;
26718;SDS011;14326;50.794;6.060;2022-08-06T06:29:33;8.40;;;2.80;;
26718;SDS011;14326;50.794;6.060;2022-08-06T06:32:04;13.85;;;2.92;;
26718;SDS011;14326;50.794;6.060;2022-08-06T06:34:40;13.10;;;3.10;;
26718;SDS011;14326;50.794;6.060;2022-08-06T06:37:17;11.70;;;2.90;;
26718;SDS011;14326;50.794;6.060;2022-08-06T06:39:54;12.05;;;3.08;;
26718;SDS011;14326;50.794;6.060;2022-08-06T06:42:29;14.13;;;3.25;;
26718;SDS011;14326;50.794;6.060;2022-08-06T06:45:02;12.50;;;3.08;;
26718;SDS011;14326;50.794;6.060;2022-08-06T06:47:35;14.35;;;2.95;;
26718;SDS011;14326;50.794;6.060;2022-08-06T06:50:11;13.77;;;2.70;;
26718;SDS011;14326;50.794;6.060;2022-08-06T06:52:45;11.73;;;2.65;;
26718;SDS011;14326;50.794;6.060;2022-08-06T06:55:17;13.10;;;2.85;;
26718;SDS011;14326;50.794;6.060;2022-08-06T06:57:50;10.73;;;2.53;;
26718;SDS011;14326;50.794;6.060;2022-08-06T07:00:19;12.85;;;2.75;;
26718;SDS011;14326;50.794;6.060;2022-08-06T07:02:46;14.88;;;2.85;;
26718;SDS011;14326;50.794;6.060;2022-08-06T07:05:14;12.48;;;2.78;;
26718;SDS011;14326;50.794;6.060;2022-08-06T07:07:43;12.43;;;2.65;;
26718;SDS011;14326;50.794;6.060;2022-08-06T07:10:13;11.65;;;2.47;;
26718;SDS011;14326;50.794;6.060;2022-08-06T07:12:42;11.52;;;2.28;;
26718;SDS011;14326;50.794;6.060;2022-08-06T07:15:11;12.75;;;2.55;;
26718;SDS011;14326;50.794;6.060;2022-08-06T07:17:39;13.55;;;2.20;;
26718;SDS011;14326;50.794;6.060;2022-08-06T07:20:07;7.60;;;2.00;;
26718;SDS011;14326;50.794;6.060;2022-08-06T07:22:38;16.27;;;2.80;;
26718;SDS011;14326;50.794;6.060;2022-08-06T07:25:09;9.75;;;2.45;;
26718;SDS011;14326;50.794;6.060;2022-08-06T07:27:40;7.45;;;2.10;;
26718;SDS011;14326;50.794;6.060;2022-08-06T07:30:11;12.48;;;2.60;;
26718;SDS011;14326;50.794;6.060;2022-08-06T07:32:39;9.65;;;1.98;;
26718;SDS011;14326;50.794;6.060;2022-08-06T07:35:07;17.02;;;2.38;;
26718;SDS011;14326;50.794;6.060;2022-08-06T07:37:35;11.30;;;1.73;;
26718;SDS011;14326;50.794;6.060;2022-08-06T07:40:07;6.85;;;1.80;;
26718;SDS011;14326;50.794;6.060;2022-08-06T07:42:40;7.43;;;1.65;;
26718;SDS011;14326;50.794;6.060;2022-08-06T07:45:08;11.30;;;1.88;;
26718;SDS011;14326;50.794;6.060;2022-08-06T07:47:37;14.48;;;1.92;;
26718;SDS011;14326;50.794;6.060;2022-08-06T07:50:09;8.77;;;1.73;;
26718;SDS011;14326;50.794;6.060;2022-08-06T07:52:39;7.18;;;1.45;;
26718;SDS011;14326;50.794;6.060;2022-08-06T07:55:07;9.80;;;1.60;;
26718;SDS011;14326;50.794;6.060;2022-08-06T07:57:37;10.50;;;1.58;;
26718;SDS011;14326;50.794;6.060;2022-08-06T08:00:05;8.88;;;1.60;;
26718;SDS011;14326;50.794;6.060;2022-08-06T08:02:33;12.68;;;1.80;;
26718;SDS011;14326;50.794;6.060;2022-08-06T08:05:00;19.35;;;4.47;;
26718;SDS011;14326;50.794;6.060;2022-08-06T08:07:45;13.05;;;1.90;;
26718;SDS011;14326;50.794;6.060;2022-08-06T08:10:13;5.03;;;1.52;;
26718;SDS011;14326;50.794;6.060;2022-08-06T08:12:43;7.20;;;1.33;;
26718;SDS011;14326;50.794;6.060;2022-08-06T08:15:10;6.93;;;1.60;;
26718;SDS011;14326;50.794;6.060;2022-08-06T08:17:36;9.50;;;2.63;;
26718;SDS011;14326;50.794;6.060;2022-08-06T08:20:04;5.03;;;1.65;;
26718;SDS011;14326;50.794;6.060;2022-08-06T08:22:32;12.35;;;2.78;;
26718;SDS011;14326;50.794;6.060;2022-08-06T08:24:59;10.38;;;1.70;;
26718;SDS011;14326;50.794;6.060;2022-08-06T08:27:27;11.40;;;1.90;;
26718;SDS011;14326;50.794;6.060;2022-08-06T08:29:54;10.68;;;1.90;;
26718;SDS011;14326;50.794;6.060;2022-08-06T08:32:20;12.00;;;1.70;;
26718;SDS011;14326;50.794;6.060;2022-08-06T08:34:47;9.80;;;1.88;;
26718;SDS011;14326;50.794;6.060;2022-08-06T08:37:13;6.55;;;1.75;;
26718;SDS011;14326;50.794;6.060;2022-08-06T08:39:40;9.70;;;1.50;;
26718;SDS011;14326;50.794;6.060;2022-08-06T08:42:09;10.15;;;1.50;;
26718;SDS011;14326;50.794;6.060;2022-08-06T08:44:38;5.43;;;1.63;;
26718;SDS011;14326;50.794;6.060;2022-08-06T08:47:07;7.38;;;1.48;;
26718;SDS011;14326;50.794;6.060;2022-08-06T08:49:37;10.23;;;1.40;;
26718;SDS011;14326;50.794;6.060;2022-08-06T08:52:06;6.63;;;1.35;;
26718;SDS011;14326;50.794;6.060;2022-08-06T08:57:02;6.25;;;1.23;;
26718;SDS011;14326;50.794;6.060;2022-08-06T08:59:30;4.95;;;1.10;;
26718;SDS011;14326;50.794;6.060;2022-08-06T09:01:59;4.72;;;1.10;;
26718;SDS011;14326;50.794;6.060;2022-08-06T09:04:26;10.98;;;1.45;;
26718;SDS011;14326;50.794;6.060;2022-08-06T09:06:53;5.90;;;0.98;;
26718;SDS011;14326;50.794;6.060;2022-08-06T09:09:20;4.28;;;0.90;;
26718;SDS011;14326;50.794;6.060;2022-08-06T09:11:48;9.23;;;1.73;;
26718;SDS011;14326;50.794;6.060;2022-08-06T09:14:15;7.07;;;1.40;;
26718;SDS011;14326;50.794;6.060;2022-08-06T09:16:41;8.23;;;1.15;;
26718;SDS011;14326;50.794;6.060;2022-08-06T09:19:09;6.68;;;1.05;;
26718;SDS011;14326;50.794;6.060;2022-08-06T09:21:38;4.97;;;1.02;;
26718;SDS011;14326;50.794;6.060;2022-08-06T09:24:05;5.28;;;1.35;;
26718;SDS011;14326;50.794;6.060;2022-08-06T09:26:32;5.07;;;0.93;;
26718;SDS011;14326;50.794;6.060;2022-08-06T09:28:58;7.60;;;1.15;;
26718;SDS011;14326;50.794;6.060;2022-08-06T09:31:25;7.57;;;0.98;;
26718;SDS011;14326;50.794;6.060;2022-08-06T09:33:53;6.43;;;0.90;;
26718;SDS011;14326;50.794;6.060;2022-08-06T09:36:23;12.35;;;1.02;;
26718;SDS011;14326;50.794;6.060;2022-08-06T09:38:50;4.25;;;0.80;;
26718;SDS011;14326;50.794;6.060;2022-08-06T09:41:18;7.38;;;1.20;;
26718;SDS011;14326;50.794;6.060;2022-08-06T09:43:47;7.80;;;1.17;;
26718;SDS011;14326;50.794;6.060;2022-08-06T09:46:15;6.03;;;1.30;;
26718;SDS011;14326;50.794;6.060;2022-08-06T09:48:56;5.95;;;0.85;;
26718;SDS011;14326;50.794;6.060;2022-08-06T09:51:25;4.32;;;1.45;;
26718;SDS011;14326;50.794;6.060;2022-08-06T09:53:53;6.90;;;1.00;;
26718;SDS011;14326;50.794;6.060;2022-08-06T09:56:21;6.50;;;1.52;;
26718;SDS011;14326;50.794;6.060;2022-08-06T09:58:48;4.28;;;0.82;;
26718;SDS011;14326;50.794;6.060;2022-08-06T10:01:16;4.40;;;0.90;;
26718;SDS011;14326;50.794;6.060;2022-08-06T10:03:44;2.95;;;0.85;;
26718;SDS011;14326;50.794;6.060;2022-08-06T10:06:12;6.72;;;1.10;;
26718;SDS011;14326;50.794;6.060;2022-08-06T10:08:47;6.28;;;1.13;;
26718;SDS011;14326;50.794;6.060;2022-08-06T10:11:15;5.10;;;1.15;;
26718;SDS011;14326;50.794;6.060;2022-08-06T10:13:59;4.65;;;0.93;;
26718;SDS011;14326;50.794;6.060;2022-08-06T10:16:25;4.55;;;0.98;;
26718;SDS011;14326;50.794;6.060;2022-08-06T10:18:53;7.60;;;1.52;;
26718;SDS011;14326;50.794;6.060;2022-08-06T10:21:21;4.78;;;1.10;;
26718;SDS011;14326;50.794;6.060;2022-08-06T10:23:50;4.13;;;0.93;;
26718;SDS011;14326;50.794;6.060;2022-08-06T10:26:21;8.35;;;1.13;;
26718;SDS011;14326;50.794;6.060;2022-08-06T10:28:51;4.20;;;0.77;;
26718;SDS011;14326;50.794;6.060;2022-08-06T10:31:19;6.00;;;0.88;;
26718;SDS011;14326;50.794;6.060;2022-08-06T10:33:47;8.52;;;1.50;;
26718;SDS011;14326;50.794;6.060;2022-08-06T10:36:18;2.78;;;1.02;;
26718;SDS011;14326;50.794;6.060;2022-08-06T10:38:50;5.13;;;0.95;;
26718;SDS011;14326;50.794;6.060;2022-08-06T10:41:20;6.13;;;0.70;;
26718;SDS011;14326;50.794;6.060;2022-08-06T10:43:47;4.63;;;0.65;;
26718;SDS011;14326;50.794;6.060;2022-08-06T10:46:15;3.85;;;1.05;;
26718;SDS011;14326;50.794;6.060;2022-08-06T10:48:43;4.75;;;1.15;;
26718;SDS011;14326;50.794;6.060;2022-08-06T10:51:12;2.47;;;0.95;;
26718;SDS011;14326;50.794;6.060;2022-08-06T10:53:39;4.63;;;0.68;;
26718;SDS011;14326;50.794;6.060;2022-08-06T10:56:10;4.77;;;0.83;;
26718;SDS011;14326;50.794;6.060;2022-08-06T10:58:38;6.53;;;0.90;;
26718;SDS011;14326;50.794;6.060;2022-08-06T11:01:05;2.35;;;0.80;;
26718;SDS011;14326;50.794;6.060;2022-08-06T11:03:36;3.65;;;0.82;;
26718;SDS011;14326;50.794;6.060;2022-08-06T11:06:18;2.25;;;0.43;;
26718;SDS011;14326;50.794;6.060;2022-08-06T11:09:03;4.05;;;0.80;;
26718;SDS011;14326;50.794;6.060;2022-08-06T11:11:46;5.28;;;0.77;;
26718;SDS011;14326;50.794;6.060;2022-08-06T11:14:23;6.95;;;0.77;;
26718;SDS011;14326;50.794;6.060;2022-08-06T11:16:54;6.13;;;0.82;;
26718;SDS011;14326;50.794;6.060;2022-08-06T11:19:36;6.30;;;0.80;;
26718;SDS011;14326;50.794;6.060;2022-08-06T11:22:05;3.80;;;0.45;;
26718;SDS011;14326;50.794;6.060;2022-08-06T11:24:32;4.53;;;0.55;;
26718;SDS011;14326;50.794;6.060;2022-08-06T11:27:00;3.40;;;0.50;;
26718;SDS011;14326;50.794;6.060;2022-08-06T11:29:27;7.30;;;1.27;;
26718;SDS011;14326;50.794;6.060;2022-08-06T11:31:54;2.88;;;1.00;;
26718;SDS011;14326;50.794;6.060;2022-08-06T11:34:22;4.72;;;0.82;;
26718;SDS011;14326;50.794;6.060;2022-08-06T11:37:07;2.22;;;0.55;;
26718;SDS011;14326;50.794;6.060;2022-08-06T11:39:34;4.30;;;0.88;;
26718;SDS011;14326;50.794;6.060;2022-08-06T11:42:42;2.00;;;0.40;;
26718;SDS011;14326;50.794;6.060;2022-08-06T11:45:11;4.25;;;0.90;;
26718;SDS011;14326;50.794;6.060;2022-08-06T11:47:50;3.67;;;0.65;;
26718;SDS011;14326;50.794;6.060;2022-08-06T11:50:30;0.63;;;0.38;;
26718;SDS011;14326;50.794;6.060;2022-08-06T11:52:57;1.27;;;0.60;;
26718;SDS011;14326;50.794;6.060;2022-08-06T11:55:23;1.90;;;0.60;;
26718;SDS011;14326;50.794;6.060;2022-08-06T12:00:57;4.30;;;0.70;;
26718;SDS011;14326;50.794;6.060;2022-08-06T12:09:05;3.80;;;0.80;;
26718;SDS011;14326;50.794;6.060;2022-08-06T12:11:32;6.78;;;0.93;;
26718;SDS011;14326;50.794;6.060;2022-08-06T12:14:02;2.75;;;0.60;;
26718;SDS011;14326;50.794;6.060;2022-08-06T12:16:31;3.95;;;0.80;;
26718;SDS011;14326;50.794;6.060;2022-08-06T12:19:03;2.08;;;0.68;;
26718;SDS011;14326;50.794;6.060;2022-08-06T12:21:31;2.63;;;0.70;;
26718;SDS011;14326;50.794;6.060;2022-08-06T12:23:59;9.02;;;0.80;;
26718;SDS011;14326;50.794;6.060;2022-08-06T12:26:29;3.70;;;0.60;;
26718;SDS011;14326;50.794;6.060;2022-08-06T12:29:00;3.55;;;0.70;;
26718;SDS011;14326;50.794;6.060;2022-08-06T12:31:33;5.10;;;0.68;;
26718;SDS011;14326;50.794;6.060;2022-08-06T12:34:00;2.65;;;0.60;;
26718;SDS011;14326;50.794;6.060;2022-08-06T12:36:31;4.28;;;1.02;;
26718;SDS011;14326;50.794;6.060;2022-08-06T12:38:59;2.60;;;0.98;;
26718;SDS011;14326;50.794;6.060;2022-08-06T12:41:33;3.67;;;0.50;;
26718;SDS011;14326;50.794;6.060;2022-08-06T12:44:03;7.15;;;0.70;;
26718;SDS011;14326;50.794;6.060;2022-08-06T12:46:30;2.67;;;0.60;;
26718;SDS011;14326;50.794;6.060;2022-08-06T12:48:57;3.80;;;0.63;;
26718;SDS011;14326;50.794;6.060;2022-08-06T12:51:25;3.17;;;0.60;;
26718;SDS011;14326;50.794;6.060;2022-08-06T12:53:52;3.22;;;0.60;;
26718;SDS011;14326;50.794;6.060;2022-08-06T12:56:20;4.03;;;0.50;;
26718;SDS011;14326;50.794;6.060;2022-08-06T12:58:49;3.42;;;0.60;;
26718;SDS011;14326;50.794;6.060;2022-08-06T13:01:20;5.38;;;1.10;;
26718;SDS011;14326;50.794;6.060;2022-08-06T13:03:48;6.20;;;1.10;;
26718;SDS011;14326;50.794;6.060;2022-08-06T13:06:18;5.30;;;0.65;;
26718;SDS011;14326;50.794;6.060;2022-08-06T13:08:48;3.15;;;0.65;;
26718;SDS011;14326;50.794;6.060;2022-08-06T13:11:17;2.13;;;0.47;;
26718;SDS011;14326;50.794;6.060;2022-08-06T13:13:45;2.80;;;0.60;;
26718;SDS011;14326;50.794;6.060;2022-08-06T13:16:13;2.10;;;0.52;;
26718;SDS011;14326;50.794;6.060;2022-08-06T13:18:42;3.40;;;0.30;;
26718;SDS011;14326;50.794;6.060;2022-08-06T13:21:28;3.50;;;0.60;;
26718;SDS011;14326;50.794;6.060;2022-08-06T13:23:54;2.05;;;0.70;;
26718;SDS011;14326;50.794;6.060;2022-08-06T13:26:22;2.67;;;0.82;;
26718;SDS011;14326;50.794;6.060;2022-08-06T13:29:07;2.47;;;0.50;;
26718;SDS011;14326;50.794;6.060;2022-08-06T13:31:37;2.97;;;0.70;;
26718;SDS011;14326;50.794;6.060;2022-08-06T13:34:08;7.63;;;0.75;;
26718;SDS011;14326;50.794;6.060;2022-08-06T13:36:36;1.73;;;0.55;;
26718;SDS011;14326;50.794;6.060;2022-08-06T13:39:18;3.60;;;0.53;;
26718;SDS011;14326;50.794;6.060;2022-08-06T13:41:59;2.38;;;0.65;;
26718;SDS011;14326;50.794;6.060;2022-08-06T13:44:30;4.53;;;0.65;;
26718;SDS011;14326;50.794;6.060;2022-08-06T13:46:59;4.45;;;0.80;;
26718;SDS011;14326;50.794;6.060;2022-08-06T13:49:28;4.88;;;0.60;;
26718;SDS011;14326;50.794;6.060;2022-08-06T13:51:55;2.38;;;0.63;;
26718;SDS011;14326;50.794;6.060;2022-08-06T13:54:22;4.50;;;1.00;;
26718;SDS011;14326;50.794;6.060;2022-08-06T13:56:50;6.20;;;1.02;;
26718;SDS011;14326;50.794;6.060;2022-08-06T13:59:18;3.55;;;0.75;;
26718;SDS011;14326;50.794;6.060;2022-08-06T14:01:45;1.98;;;0.68;;
26718;SDS011;14326;50.794;6.060;2022-08-06T14:04:13;3.35;;;0.90;;
26718;SDS011;14326;50.794;6.060;2022-08-06T14:06:42;3.50;;;0.93;;
26718;SDS011;14326;50.794;6.060;2022-08-06T14:09:10;4.78;;;0.90;;
26718;SDS011;14326;50.794;6.060;2022-08-06T14:11:36;1.27;;;0.70;;
26718;SDS011;14326;50.794;6.060;2022-08-06T14:14:03;3.33;;;0.85;;
26718;SDS011;14326;50.794;6.060;2022-08-06T14:16:30;2.47;;;0.80;;
26718;SDS011;14326;50.794;6.060;2022-08-06T14:18:56;1.90;;;0.63;;
26718;SDS011;14326;50.794;6.060;2022-08-06T14:21:23;4.10;;;0.88;;
26718;SDS011;14326;50.794;6.060;2022-08-06T14:23:51;4.18;;;0.77;;
26718;SDS011;14326;50.794;6.060;2022-08-06T14:26:18;3.38;;;0.73;;
26718;SDS011;14326;50.794;6.060;2022-08-06T14:28:44;3.08;;;1.13;;
26718;SDS011;14326;50.794;6.060;2022-08-06T14:31:11;5.00;;;0.80;;
26718;SDS011;14326;50.794;6.060;2022-08-06T14:33:38;3.80;;;0.85;;
26718;SDS011;14326;50.794;6.060;2022-08-06T14:36:05;2.28;;;0.80;;
26718;SDS011;14326;50.794;6.060;2022-08-06T14:38:32;2.42;;;0.70;;
26718;SDS011;14326;50.794;6.060;2022-08-06T14:41:01;5.80;;;1.30;;
26718;SDS011;14326;50.794;6.060;2022-08-06T14:43:45;4.45;;;1.20;;
26718;SDS011;14326;50.794;6.060;2022-08-06T14:46:30;3.40;;;1.17;;
26718;SDS011;14326;50.794;6.060;2022-08-06T14:48:57;6.90;;;1.10;;
26718;SDS011;14326;50.794;6.060;2022-08-06T14:51:25;3.97;;;1.45;;
26718;SDS011;14326;50.794;6.060;2022-08-06T14:53:52;3.53;;;1.13;;
26718;SDS011;14326;50.794;6.060;2022-08-06T14:56:20;3.75;;;1.10;;
26718;SDS011;14326;50.794;6.060;2022-08-06T14:58:46;5.95;;;1.20;;
26718;SDS011;14326;50.794;6.060;2022-08-06T15:01:13;5.18;;;1.00;;
26718;SDS011;14326;50.794;6.060;2022-08-06T15:03:40;5.97;;;1.13;;
26718;SDS011;14326;50.794;6.060;2022-08-06T15:06:06;7.32;;;1.25;;
26718;SDS011;14326;50.794;6.060;2022-08-06T15:08:33;3.90;;;1.10;;
26718;SDS011;14326;50.794;6.060;2022-08-06T15:11:00;4.60;;;1.40;;
26718;SDS011;14326;50.794;6.060;2022-08-06T15:13:28;4.60;;;1.08;;
26718;SDS011;14326;50.794;6.060;2022-08-06T15:15:54;5.25;;;1.60;;
26718;SDS011;14326;50.794;6.060;2022-08-06T15:18:21;7.63;;;1.05;;
26718;SDS011;14326;50.794;6.060;2022-08-06T15:20:48;2.25;;;0.90;;